»·PEaware :: N132KT L71-KFUL

N132KT :: L71-KFUL

FLIGHT INFORMATION

Flight Status: Arrived
Operator: Privately registered:
United States
More flights under this callsign
Pilot: Keith S. (1)
Aircraft: BEECH AIRCRAFT BARON
(BE58)
More flights by this aircraft type
Origin: L71 California City Mun
United States
Destination: KFUL Fullerton Mun
United States
More flights between these airports :: More routes between these airports
Route: +
File this flight plan on PilotEdge
Remarks: FSE
Altitude:
(Current/Filed)
6,500ft
Speed:
(Current/Filed)
180kts
Departed: 15-Feb-13 05:53 PM
Arrived: 15-Feb-13 06:29 PM
Distance/Time
Traveled:
77nm/0:36
Distance/Time
To Go:
Arrived

Flight Plot

Page will automatically refresh every two minutes.

Flight plan parsing failed; only flown route is shown


Map Options




Map Legend


Flown Route
Filed Route
Departure Airport
Arrival Airport
Navaid (VOR, NDB)
Fix

Horizontal Profiles

Position Reports

Time Latitude Longitude Heading Altitude Ground
Speed
15-Feb-13 17:53 35.129954 -118.111635 240 4520ft 134kts
15-Feb-13 17:54 35.110963 -118.149924 225 5399ft 131kts
15-Feb-13 17:55 35.077122 -118.145773 158 5605ft 151kts
15-Feb-13 17:56 35.033397 -118.133008 164 5508ft 165kts
15-Feb-13 17:57 34.988720 -118.140358 204 5505ft 175kts
15-Feb-13 17:58 34.944222 -118.163709 185 5506ft 173kts
15-Feb-13 17:59 34.896803 -118.174093 184 5498ft 175kts
15-Feb-13 18:00 34.849658 -118.174597 168 5495ft 173kts
15-Feb-13 18:01 34.802068 -118.169512 168 5492ft 172kts
15-Feb-13 18:02 34.754975 -118.163344 151 5490ft 165kts
15-Feb-13 18:03 34.712845 -118.141994 162 5484ft 169kts
15-Feb-13 18:04 34.666616 -118.131824 162 5484ft 169kts
15-Feb-13 18:05 34.620129 -118.121948 169 5487ft 172kts
15-Feb-13 18:06 34.572075 -118.120192 171 5487ft 173kts
15-Feb-13 18:07 34.524042 -118.118595 171 5517ft 174kts
15-Feb-13 18:08 34.474976 -118.116607 171 5459ft 174kts
15-Feb-13 18:09 34.441168 -118.148586 260 5570ft 181kts
15-Feb-13 18:10 34.435837 -118.206229 261 6132ft 159kts
15-Feb-13 18:11 34.419503 -118.251493 223 6555ft 156kts
15-Feb-13 18:12 34.388825 -118.293698 223 6491ft 171kts
15-Feb-13 18:13 34.356357 -118.336620 223 6494ft 175kts
15-Feb-13 18:14 34.313883 -118.364016 159 5482ft 182kts
15-Feb-13 18:15 34.270553 -118.336702 151 5432ft 172kts
15-Feb-13 18:16 34.229158 -118.309313 154 5414ft 170kts
15-Feb-13 18:17 34.189760 -118.285167 155 5425ft 173kts
15-Feb-13 18:18 34.154802 -118.257846 122 5417ft 176kts
15-Feb-13 18:19 34.138013 -118.206451 112 5412ft 179kts
15-Feb-13 18:20 34.121669 -118.154827 112 5219ft 186kts
15-Feb-13 18:21 34.103281 -118.097353 111 4396ft 200kts
15-Feb-13 18:22 34.083332 -118.036263 121 3483ft 203kts
15-Feb-13 18:23 34.034845 -118.015412 168 2978ft 182kts
15-Feb-13 18:24 33.990755 -118.003279 168 2968ft 165kts
15-Feb-13 18:25 33.952230 -117.994651 168 2962ft 164kts
15-Feb-13 18:26 33.916663 -117.987148 156 2461ft 173kts
15-Feb-13 18:27 33.886355 -117.975619 106 1558ft 143kts
15-Feb-13 18:28 33.876460 -117.951259 230 1044ft 136kts
15-Feb-13 18:29 33.872067 -117.979692 261 99ft 49kts
15-Feb-13 18:30 33.871376 -117.981182 166 99ft 3kts
15-Feb-13 18:31 33.870670 -117.980891 159 99ft 0kts
15-Feb-13 18:32 33.870670 -117.980891 159 99ft 0kts
15-Feb-13 18:33 33.870670 -117.980891 159 99ft 0kts
15-Feb-13 18:34 33.870670 -117.980891 159 99ft 0kts
15-Feb-13 18:35 33.870670 -117.980891 159 99ft 0kts
15-Feb-13 18:36 33.870670 -117.980891 159 99ft 0kts
15-Feb-13 18:37 33.870670 -117.980891 159 99ft 0kts
15-Feb-13 18:38 33.870670 -117.980891 159 99ft 0kts
15-Feb-13 18:39 33.870670 -117.980891 159 99ft 0kts
15-Feb-13 18:40 33.870670 -117.980891 159 99ft 0kts
15-Feb-13 18:41 33.870670 -117.980891 159 99ft 0kts
15-Feb-13 18:42 33.870670 -117.980891 159 99ft 0kts
15-Feb-13 18:43 33.870670 -117.980891 159 99ft 0kts
15-Feb-13 18:44 33.870670 -117.980891 159 99ft 0kts

Navigation Log

Ident Type
Flight plan parsing failed, navigation log unavailable